createdAt,value
2022-10-16T00:00:03.080Z,15.62
2022-10-16T00:01:03.085Z,15.58
2022-10-16T00:02:03.145Z,15.64
2022-10-16T00:03:03.068Z,15.67
2022-10-16T00:04:03.064Z,15.65
2022-10-16T00:05:03.059Z,15.68
2022-10-16T00:06:03.052Z,15.75
2022-10-16T00:07:03.055Z,15.67
2022-10-16T00:08:03.044Z,15.70
2022-10-16T00:09:03.039Z,15.82
2022-10-16T00:10:03.035Z,15.73
2022-10-16T00:11:03.032Z,15.75
2022-10-16T00:12:03.027Z,15.82
2022-10-16T00:13:03.018Z,15.80
2022-10-16T00:14:03.018Z,15.73
2022-10-16T00:15:03.021Z,15.84
2022-10-16T00:16:03.012Z,15.84
2022-10-16T00:17:03.005Z,15.84
2022-10-16T00:18:02.996Z,15.83
2022-10-16T00:19:02.993Z,15.84
2022-10-16T00:20:02.988Z,15.77
2022-10-16T00:21:02.984Z,15.83
2022-10-16T00:22:02.978Z,15.73
2022-10-16T00:23:02.985Z,15.82
2022-10-16T00:24:02.967Z,15.75
2022-10-16T00:25:02.962Z,15.84
2022-10-16T00:26:02.962Z,15.79
2022-10-16T00:27:02.953Z,15.77
2022-10-16T00:28:02.950Z,15.80
2022-10-16T00:29:02.985Z,15.83
2022-10-16T00:30:02.940Z,15.80
2022-10-16T00:31:02.935Z,15.79
2022-10-16T00:32:02.930Z,15.75
2022-10-16T00:33:02.930Z,15.79
2022-10-16T00:34:02.920Z,15.82
2022-10-16T00:35:02.919Z,15.75
2022-10-16T00:36:02.911Z,15.75
2022-10-16T00:37:02.905Z,15.82
2022-10-16T00:38:02.902Z,15.90
2022-10-16T00:39:03.257Z,15.82
2022-10-16T00:40:02.891Z,15.79
2022-10-16T00:41:02.889Z,15.80
2022-10-16T00:42:02.896Z,15.75
2022-10-16T00:43:02.920Z,15.86
2022-10-16T00:44:02.876Z,15.83
2022-10-16T00:45:02.869Z,15.76
2022-10-16T00:46:02.863Z,15.83
2022-10-16T00:47:02.881Z,15.86
2022-10-16T00:48:02.904Z,15.83
2022-10-16T00:49:02.865Z,15.84
2022-10-16T00:50:02.849Z,15.84
2022-10-16T00:51:02.842Z,15.80
2022-10-16T00:52:02.839Z,15.84
2022-10-16T00:53:02.848Z,15.83
2022-10-16T00:54:02.829Z,15.76
2022-10-16T00:55:02.821Z,15.82
2022-10-16T00:56:02.821Z,15.82
2022-10-16T00:57:02.855Z,15.80
2022-10-16T00:58:02.812Z,15.77
2022-10-16T00:59:02.805Z,15.79
2022-10-16T01:00:02.795Z,15.77
2022-10-16T01:01:02.874Z,15.72
2022-10-16T01:02:02.795Z,15.67
2022-10-16T01:03:02.804Z,15.76
2022-10-16T01:04:02.781Z,15.76
2022-10-16T01:05:02.778Z,15.67
2022-10-16T01:06:02.776Z,15.79
2022-10-16T01:07:02.770Z,15.77
2022-10-16T01:08:02.769Z,15.75
2022-10-16T01:09:02.756Z,15.68
2022-10-16T01:10:02.766Z,15.72
2022-10-16T01:11:02.749Z,15.76
2022-10-16T01:12:02.745Z,15.72
2022-10-16T01:13:02.737Z,15.72
2022-10-16T01:14:02.734Z,15.77
2022-10-16T01:15:02.730Z,15.75
2022-10-16T01:16:02.725Z,15.76
2022-10-16T01:17:02.730Z,15.77
2022-10-16T01:18:02.716Z,15.82
2022-10-16T01:19:02.714Z,15.75
2022-10-16T01:20:02.704Z,15.77
2022-10-16T01:21:02.702Z,15.73
2022-10-16T01:22:02.698Z,15.76
2022-10-16T01:23:02.695Z,15.79
2022-10-16T01:24:02.691Z,15.90
2022-10-16T01:25:02.684Z,15.95
2022-10-16T01:26:02.674Z,15.91
2022-10-16T01:27:02.678Z,15.92
2022-10-16T01:28:02.668Z,15.91
2022-10-16T01:29:02.701Z,15.83
2022-10-16T01:30:02.666Z,15.95
2022-10-16T01:31:02.653Z,15.91
2022-10-16T01:32:02.651Z,15.98
2022-10-16T01:33:02.650Z,16.01
2022-10-16T01:34:02.644Z,15.95
2022-10-16T01:35:02.637Z,16.00
2022-10-16T01:36:02.631Z,15.88
2022-10-16T01:37:02.629Z,15.88
2022-10-16T01:38:02.622Z,15.97
2022-10-16T01:39:02.619Z,15.94
2022-10-16T01:40:02.610Z,16.01
2022-10-16T01:41:02.608Z,16.04
2022-10-16T01:42:02.603Z,16.04
2022-10-16T01:43:02.601Z,15.97
2022-10-16T01:44:02.593Z,16.05
2022-10-16T01:45:02.592Z,16.01
2022-10-16T01:46:02.584Z,16.05
2022-10-16T01:47:02.579Z,16.08
2022-10-16T01:48:02.575Z,16.00
2022-10-16T01:49:02.570Z,16.02
2022-10-16T01:50:02.572Z,16.04
2022-10-16T01:51:02.564Z,16.02
2022-10-16T01:52:02.563Z,16.10
2022-10-16T01:53:02.550Z,15.97
2022-10-16T01:54:02.552Z,16.04
2022-10-16T01:55:02.549Z,16.05
2022-10-16T01:56:02.538Z,16.13
2022-10-16T01:57:02.536Z,16.05
2022-10-16T01:58:02.527Z,16.00
2022-10-16T01:59:02.524Z,15.94
2022-10-16T02:00:02.518Z,16.01
2022-10-16T02:01:02.623Z,16.04
2022-10-16T02:02:02.510Z,16.01
2022-10-16T02:03:02.506Z,15.97
2022-10-16T02:04:02.499Z,15.98
2022-10-16T02:05:02.498Z,15.91
2022-10-16T02:06:02.490Z,16.00
2022-10-16T02:07:02.486Z,16.04
2022-10-16T02:08:04.849Z,15.98
2022-10-16T02:09:02.478Z,15.92
2022-10-16T02:10:02.475Z,16.00
2022-10-16T02:11:02.466Z,16.01
2022-10-16T02:12:02.463Z,15.95
2022-10-16T02:13:02.459Z,16.02
2022-10-16T02:14:02.455Z,16.00
2022-10-16T02:15:02.451Z,16.04
2022-10-16T02:16:02.446Z,15.98
2022-10-16T02:17:02.442Z,16.01
2022-10-16T02:18:02.440Z,16.08
2022-10-16T02:19:02.636Z,15.94
2022-10-16T02:20:02.431Z,16.02
2022-10-16T02:21:02.423Z,16.01
2022-10-16T02:22:02.415Z,16.00
2022-10-16T02:23:02.412Z,16.02
2022-10-16T02:24:02.410Z,16.01
2022-10-16T02:25:02.408Z,15.98
2022-10-16T02:26:02.399Z,15.98
2022-10-16T02:27:02.395Z,16.02
2022-10-16T02:28:02.388Z,16.02
2022-10-16T02:29:02.385Z,16.02
2022-10-16T02:30:02.383Z,16.01
2022-10-16T02:31:02.381Z,16.04
2022-10-16T02:32:02.374Z,16.04
2022-10-16T02:33:02.370Z,16.08
2022-10-16T02:34:02.368Z,16.08
2022-10-16T02:35:02.369Z,16.01
2022-10-16T02:36:02.354Z,16.00
2022-10-16T02:37:02.352Z,16.08
2022-10-16T02:38:02.408Z,15.97
2022-10-16T02:39:02.339Z,16.05
2022-10-16T02:40:02.338Z,16.01
2022-10-16T02:41:02.329Z,16.04
2022-10-16T02:42:02.325Z,16.05
2022-10-16T02:43:02.321Z,16.04
2022-10-16T02:44:02.322Z,16.02
2022-10-16T02:45:02.311Z,16.02
2022-10-16T02:46:02.307Z,16.04
2022-10-16T02:47:02.378Z,16.01
2022-10-16T02:48:02.298Z,16.05
2022-10-16T02:49:02.292Z,15.97
2022-10-16T02:50:02.286Z,16.02
2022-10-16T02:51:02.283Z,16.00
2022-10-16T02:52:02.279Z,16.04
2022-10-16T02:53:02.285Z,16.00
2022-10-16T02:54:02.269Z,15.92
2022-10-16T02:55:02.268Z,15.95
2022-10-16T02:56:02.260Z,15.92
2022-10-16T02:57:02.265Z,15.83
2022-10-16T02:58:02.252Z,15.90
2022-10-16T02:59:02.248Z,15.97
2022-10-16T03:00:02.243Z,15.92
2022-10-16T03:01:02.273Z,15.98
2022-10-16T03:02:02.233Z,15.92
2022-10-16T03:03:02.228Z,15.92
2022-10-16T03:04:02.223Z,15.82
2022-10-16T03:05:02.222Z,15.80
2022-10-16T03:06:02.214Z,15.82
2022-10-16T03:07:02.211Z,15.84
2022-10-16T03:08:02.208Z,15.86
2022-10-16T03:09:02.195Z,15.86
2022-10-16T03:10:02.195Z,15.77
2022-10-16T03:11:02.189Z,15.82
2022-10-16T03:12:02.186Z,15.76
2022-10-16T03:13:02.185Z,15.77
2022-10-16T03:14:02.177Z,15.82
2022-10-16T03:15:02.180Z,15.73
2022-10-16T03:16:02.171Z,15.67
2022-10-16T03:17:02.162Z,15.67
2022-10-16T03:18:02.158Z,15.77
2022-10-16T03:19:02.157Z,15.59
2022-10-16T03:20:02.149Z,15.70
2022-10-16T03:21:02.146Z,15.62
2022-10-16T03:22:02.144Z,15.58
2022-10-16T03:23:02.134Z,15.57
2022-10-16T03:24:02.131Z,15.55
2022-10-16T03:25:02.126Z,15.59
2022-10-16T03:26:02.124Z,15.51
2022-10-16T03:27:02.117Z,15.49
2022-10-16T03:28:02.111Z,15.51
2022-10-16T03:29:02.160Z,15.47
2022-10-16T03:30:02.102Z,15.42
2022-10-16T03:31:02.096Z,15.46
2022-10-16T03:32:02.095Z,15.46
2022-10-16T03:33:02.089Z,15.46
2022-10-16T03:34:02.087Z,15.40
2022-10-16T03:35:02.082Z,15.43
2022-10-16T03:36:02.087Z,15.36
2022-10-16T03:37:02.072Z,15.42
2022-10-16T03:38:02.064Z,15.40
2022-10-16T03:39:02.060Z,15.42
2022-10-16T03:40:02.056Z,15.39
2022-10-16T03:41:02.046Z,15.29
2022-10-16T03:42:02.048Z,15.29
2022-10-16T03:43:02.089Z,15.29
2022-10-16T03:44:02.037Z,15.28
2022-10-16T03:45:02.029Z,15.25
2022-10-16T03:46:02.029Z,15.25
2022-10-16T03:47:02.023Z,15.28
2022-10-16T03:48:02.017Z,15.27
2022-10-16T03:49:04.847Z,15.28
2022-10-16T03:50:02.008Z,15.24
2022-10-16T03:51:02.005Z,15.28
2022-10-16T03:52:02.000Z,15.28
2022-10-16T03:53:01.992Z,15.29
2022-10-16T03:54:01.989Z,15.27
2022-10-16T03:55:01.993Z,15.24
2022-10-16T03:56:01.980Z,15.31
2022-10-16T03:57:01.973Z,15.24
2022-10-16T03:58:01.969Z,15.29
2022-10-16T03:59:01.965Z,15.28
2022-10-16T04:00:01.962Z,15.33
2022-10-16T04:01:02.032Z,15.29
2022-10-16T04:02:01.954Z,15.24
2022-10-16T04:03:01.949Z,15.29
2022-10-16T04:04:01.950Z,15.27
2022-10-16T04:05:01.937Z,15.29
2022-10-16T04:06:01.931Z,15.31
2022-10-16T04:07:01.932Z,15.29
2022-10-16T04:08:01.925Z,15.24
2022-10-16T04:09:01.917Z,15.29
2022-10-16T04:10:01.912Z,15.25
2022-10-16T04:11:01.907Z,15.27
2022-10-16T04:12:01.906Z,15.28
2022-10-16T04:13:01.891Z,15.25
2022-10-16T04:14:01.895Z,15.28
2022-10-16T04:15:01.891Z,15.28
2022-10-16T04:16:01.883Z,15.29
2022-10-16T04:17:01.880Z,15.25
2022-10-16T04:18:01.876Z,15.29
2022-10-16T04:19:01.867Z,15.29
2022-10-16T04:20:01.871Z,15.29
2022-10-16T04:21:01.859Z,15.19
2022-10-16T04:22:01.855Z,15.19
2022-10-16T04:23:01.850Z,15.24
2022-10-16T04:24:01.847Z,15.27
2022-10-16T04:25:01.838Z,15.17
2022-10-16T04:26:01.835Z,15.19
2022-10-16T04:27:01.833Z,15.19
2022-10-16T04:28:01.828Z,15.17
2022-10-16T04:29:01.879Z,15.17
2022-10-16T04:30:01.818Z,15.11
2022-10-16T04:31:01.809Z,15.11
2022-10-16T04:32:01.805Z,15.15
2022-10-16T04:34:01.797Z,15.24
2022-10-16T04:35:01.801Z,15.14
2022-10-16T04:36:01.786Z,15.07
2022-10-16T04:37:01.779Z,15.09
2022-10-16T04:38:01.774Z,15.02
2022-10-16T04:39:01.773Z,15.07
2022-10-16T04:40:01.773Z,15.03
2022-10-16T04:41:01.764Z,15.11
2022-10-16T04:42:01.760Z,15.02
2022-10-16T04:43:01.756Z,15.07
2022-10-16T04:44:01.746Z,15.09
2022-10-16T04:45:01.743Z,14.99
2022-10-16T04:46:01.736Z,15.04
2022-10-16T04:47:01.732Z,15.06
2022-10-16T04:48:01.729Z,14.96
2022-10-16T04:49:01.721Z,14.91
2022-10-16T04:50:01.717Z,14.96
2022-10-16T04:51:01.711Z,14.99
2022-10-16T04:52:01.710Z,14.88
2022-10-16T04:53:01.724Z,14.91
2022-10-16T04:54:01.699Z,14.88
2022-10-16T04:55:01.700Z,14.89
2022-10-16T04:56:01.686Z,14.86
2022-10-16T04:57:01.683Z,14.85
2022-10-16T04:58:01.675Z,14.84
2022-10-16T04:59:08.831Z,14.72
2022-10-16T05:01:05.671Z,14.78
2022-10-16T05:02:05.667Z,14.78
2022-10-16T05:03:58.757Z,14.72
2022-10-16T05:04:58.749Z,14.84
2022-10-16T05:07:02.746Z,14.66
2022-10-16T05:08:02.732Z,14.73
2022-10-16T05:09:55.657Z,14.68
2022-10-16T05:10:55.648Z,14.65
2022-10-16T05:12:48.760Z,14.60
2022-10-16T05:13:50.953Z,14.60
2022-10-16T05:15:41.844Z,14.69
2022-10-16T05:16:41.829Z,14.62
2022-10-16T05:18:45.844Z,14.60
2022-10-16T05:19:45.818Z,14.60
2022-10-16T05:21:38.958Z,14.58
2022-10-16T05:22:38.938Z,14.58
2022-10-16T05:24:32.059Z,14.59
2022-10-16T05:25:32.050Z,14.58
2022-10-16T05:26:32.040Z,14.63
2022-10-16T05:27:32.037Z,14.58
2022-10-16T05:28:32.049Z,14.55
2022-10-16T05:29:32.030Z,14.59
2022-10-16T05:30:32.025Z,14.65
2022-10-16T05:31:32.019Z,14.59
2022-10-16T05:32:32.012Z,14.70
2022-10-16T05:33:32.008Z,14.69
2022-10-16T05:34:32.002Z,14.69
2022-10-16T05:35:31.998Z,14.60
2022-10-16T05:36:31.994Z,14.73
2022-10-16T05:37:31.987Z,14.79
2022-10-16T05:38:31.981Z,14.68
2022-10-16T05:39:31.977Z,14.81
2022-10-16T05:40:31.970Z,14.72
2022-10-16T05:41:31.967Z,14.69
2022-10-16T05:42:31.961Z,14.77
2022-10-16T05:43:31.961Z,14.77
2022-10-16T05:44:31.952Z,14.81
2022-10-16T05:45:31.946Z,14.82
2022-10-16T05:46:31.940Z,14.73
2022-10-16T05:47:31.936Z,14.79
2022-10-16T05:48:31.928Z,14.78
2022-10-16T05:49:31.927Z,14.78
2022-10-16T05:50:31.920Z,14.73
2022-10-16T05:51:31.915Z,14.77
2022-10-16T05:52:31.909Z,14.88
2022-10-16T05:53:31.973Z,14.89
2022-10-16T05:54:31.899Z,14.89
2022-10-16T05:55:31.895Z,14.96
2022-10-16T05:56:31.888Z,15.00
2022-10-16T05:57:31.884Z,14.99
2022-10-16T05:58:31.880Z,15.02
2022-10-16T05:59:31.876Z,14.97
2022-10-16T06:00:31.869Z,15.04
2022-10-16T06:01:31.914Z,15.09
2022-10-16T06:02:31.862Z,15.11
2022-10-16T06:03:31.855Z,15.03
2022-10-16T06:04:31.848Z,15.02
2022-10-16T06:05:31.842Z,15.11
2022-10-16T06:06:31.849Z,15.15
2022-10-16T06:07:31.835Z,15.14
2022-10-16T06:08:31.829Z,15.15
2022-10-16T06:09:31.823Z,15.15
2022-10-16T06:10:31.821Z,15.17
2022-10-16T06:11:31.814Z,15.19
2022-10-16T06:12:31.808Z,15.21
2022-10-16T06:13:31.803Z,15.29
2022-10-16T06:14:31.835Z,15.27
2022-10-16T06:15:31.800Z,15.28
2022-10-16T06:16:31.788Z,15.27
2022-10-16T06:17:31.803Z,15.37
2022-10-16T06:18:31.780Z,15.40
2022-10-16T06:19:31.774Z,15.37
2022-10-16T06:20:31.768Z,15.49
2022-10-16T06:21:31.764Z,15.49
2022-10-16T06:22:31.759Z,15.58
2022-10-16T06:23:31.755Z,15.44
2022-10-16T06:24:31.746Z,15.51
2022-10-16T06:25:31.743Z,15.62
2022-10-16T06:26:31.737Z,15.57
2022-10-16T06:27:31.735Z,15.57
2022-10-16T06:28:31.773Z,15.62
2022-10-16T06:29:31.724Z,15.64
2022-10-16T06:30:31.719Z,15.64
2022-10-16T06:31:31.743Z,15.62
2022-10-16T06:32:31.713Z,15.61
2022-10-16T06:33:31.704Z,15.68
2022-10-16T06:34:31.700Z,15.70
2022-10-16T06:35:31.696Z,15.72
2022-10-16T06:36:31.693Z,15.76
2022-10-16T06:37:31.687Z,15.77
2022-10-16T06:38:31.682Z,15.77
2022-10-16T06:39:31.679Z,15.75
2022-10-16T06:40:31.673Z,15.77
2022-10-16T06:41:31.668Z,15.86
2022-10-16T06:42:31.663Z,15.84
2022-10-16T06:43:31.660Z,15.95
2022-10-16T06:44:31.655Z,15.94
2022-10-16T06:45:31.648Z,15.94
2022-10-16T06:46:31.646Z,15.90
2022-10-16T06:47:31.640Z,16.04
2022-10-16T06:48:31.635Z,16.01
2022-10-16T06:49:31.639Z,16.02
2022-10-16T06:50:31.628Z,16.08
2022-10-16T06:51:31.626Z,16.10
2022-10-16T06:52:31.619Z,16.17
2022-10-16T06:53:40.022Z,16.12
2022-10-16T06:54:36.519Z,16.21
2022-10-16T06:55:31.606Z,16.23
2022-10-16T06:56:31.623Z,16.35
2022-10-16T06:57:31.598Z,16.29
2022-10-16T06:58:31.592Z,16.35
2022-10-16T06:59:31.589Z,16.36
2022-10-16T07:00:31.580Z,16.47
2022-10-16T07:01:31.592Z,16.53
2022-10-16T07:02:31.572Z,16.51
2022-10-16T07:03:31.567Z,16.43
2022-10-16T07:04:31.563Z,16.54
2022-10-16T07:05:31.558Z,16.49
2022-10-16T07:06:31.555Z,16.47
2022-10-16T07:07:31.552Z,16.47
2022-10-16T07:08:31.547Z,16.47
2022-10-16T07:09:31.543Z,16.46
2022-10-16T07:10:31.536Z,16.47
2022-10-16T07:11:31.533Z,16.61
2022-10-16T07:12:31.529Z,16.64
2022-10-16T07:13:31.524Z,16.66
2022-10-16T07:14:31.520Z,16.58
2022-10-16T07:15:31.515Z,16.56
2022-10-16T07:16:31.508Z,16.65
2022-10-16T07:17:31.506Z,16.64
2022-10-16T07:19:34.244Z,16.69
2022-10-16T07:20:31.495Z,16.57
2022-10-16T07:21:31.488Z,16.56
2022-10-16T07:22:31.485Z,16.50
2022-10-16T07:23:31.486Z,16.49
2022-10-16T07:24:31.477Z,16.58
2022-10-16T07:25:31.470Z,16.61
2022-10-16T07:26:31.467Z,16.65
2022-10-16T07:27:31.478Z,16.83
2022-10-16T07:28:31.468Z,16.81
2022-10-16T07:29:31.454Z,16.81
2022-10-16T07:30:31.449Z,16.81
2022-10-16T07:31:31.447Z,16.78
2022-10-16T07:32:31.441Z,16.79
2022-10-16T07:33:31.437Z,16.84
2022-10-16T07:34:31.434Z,16.89
2022-10-16T07:35:31.430Z,16.83
2022-10-16T07:36:31.455Z,16.96
2022-10-16T07:37:31.423Z,16.94
2022-10-16T07:38:31.417Z,16.99
2022-10-16T07:39:31.413Z,17.02
2022-10-16T07:40:31.407Z,17.11
2022-10-16T07:41:31.405Z,17.11
2022-10-16T07:42:31.400Z,17.06
2022-10-16T07:43:31.398Z,17.20
2022-10-16T07:44:31.393Z,17.20
2022-10-16T07:45:31.389Z,17.24
2022-10-16T07:46:31.384Z,17.29
2022-10-16T07:47:31.382Z,17.30
2022-10-16T07:48:31.381Z,17.41
2022-10-16T07:49:31.373Z,17.41
2022-10-16T07:50:31.371Z,17.39
2022-10-16T07:51:31.366Z,17.34
2022-10-16T07:52:31.362Z,17.36
2022-10-16T07:53:31.358Z,17.41
2022-10-16T07:54:31.352Z,17.36
2022-10-16T07:55:31.352Z,17.36
2022-10-16T07:56:31.345Z,17.39
2022-10-16T07:57:31.343Z,17.44
2022-10-16T07:58:31.338Z,17.42
2022-10-16T07:59:31.335Z,17.41
2022-10-16T08:00:31.331Z,17.41
2022-10-16T08:01:31.372Z,17.45
2022-10-16T08:02:31.325Z,17.38
2022-10-16T08:03:31.320Z,17.44
2022-10-16T08:04:31.318Z,17.41
2022-10-16T08:05:31.312Z,17.41
2022-10-16T08:06:31.308Z,17.41
2022-10-16T08:07:31.305Z,17.46
2022-10-16T08:08:31.302Z,17.41
2022-10-16T08:09:31.297Z,17.44
2022-10-16T08:10:31.293Z,17.36
2022-10-16T08:11:31.292Z,17.41
2022-10-16T08:12:31.286Z,17.41
2022-10-16T08:13:31.283Z,17.38
2022-10-16T08:14:31.282Z,17.44
2022-10-16T08:15:31.296Z,17.46
2022-10-16T08:16:31.271Z,17.41
2022-10-16T08:17:31.268Z,17.48
2022-10-16T08:18:31.267Z,17.48
2022-10-16T08:19:31.262Z,17.49
2022-10-16T08:20:31.260Z,17.64
2022-10-16T08:21:31.257Z,17.59
2022-10-16T08:22:31.249Z,17.64
2022-10-16T08:23:31.243Z,17.65
2022-10-16T08:24:31.243Z,17.57
2022-10-16T08:25:31.241Z,17.63
2022-10-16T08:26:31.236Z,17.60
2022-10-16T08:27:31.232Z,17.67
2022-10-16T08:28:31.290Z,17.70
2022-10-16T08:29:31.223Z,17.71
2022-10-16T08:30:31.225Z,17.72
2022-10-16T08:31:31.217Z,17.86
2022-10-16T08:32:31.580Z,17.82
2022-10-16T08:33:31.209Z,17.86
2022-10-16T08:34:31.205Z,17.87
2022-10-16T08:35:31.203Z,17.80
2022-10-16T08:36:31.200Z,17.90
2022-10-16T08:37:31.195Z,17.95
2022-10-16T08:38:31.193Z,18.00
2022-10-16T08:39:31.189Z,18.03
2022-10-16T08:40:31.186Z,17.95
2022-10-16T08:41:31.184Z,18.01
2022-10-16T08:42:31.179Z,18.08
2022-10-16T08:43:31.176Z,18.10
2022-10-16T08:44:31.173Z,18.04
2022-10-16T08:45:31.168Z,18.23
2022-10-16T08:46:31.167Z,18.19
2022-10-16T08:47:31.163Z,18.16
2022-10-16T08:48:31.158Z,18.29
2022-10-16T08:49:31.234Z,18.22
2022-10-16T08:50:31.152Z,18.28
2022-10-16T08:51:31.150Z,18.29
2022-10-16T08:52:31.145Z,18.35
2022-10-16T08:53:31.141Z,18.41
2022-10-16T08:54:31.144Z,18.38
2022-10-16T08:55:31.140Z,18.38
2022-10-16T08:56:31.136Z,18.37
2022-10-16T08:57:31.129Z,18.47
2022-10-16T08:58:31.125Z,18.52
2022-10-16T08:59:31.125Z,18.59
2022-10-16T09:00:31.147Z,18.77
2022-10-16T09:01:31.117Z,18.84
2022-10-16T09:02:31.116Z,18.98
2022-10-16T09:03:31.112Z,18.88
2022-10-16T09:04:31.107Z,18.98
2022-10-16T09:05:31.103Z,18.93
2022-10-16T09:06:31.101Z,19.00
2022-10-16T09:07:31.102Z,19.04
2022-10-16T09:08:31.096Z,18.95
2022-10-16T09:09:31.091Z,18.95
2022-10-16T09:10:31.091Z,19.04
2022-10-16T09:11:31.088Z,19.09
2022-10-16T09:12:31.085Z,19.12
2022-10-16T09:13:31.083Z,19.18
2022-10-16T09:14:31.107Z,19.18
2022-10-16T09:15:31.076Z,19.16
2022-10-16T09:16:31.071Z,19.19
2022-10-16T09:17:31.069Z,19.16
2022-10-16T09:18:32.741Z,19.21
2022-10-16T09:19:31.066Z,19.15
2022-10-16T09:20:31.064Z,19.16
2022-10-16T09:21:31.069Z,19.11
2022-10-16T09:22:31.057Z,19.09
2022-10-16T09:23:31.051Z,19.11
2022-10-16T09:24:31.051Z,19.02
2022-10-16T09:25:31.048Z,19.08
2022-10-16T09:26:31.052Z,19.04
2022-10-16T09:27:31.042Z,18.95
2022-10-16T09:28:31.093Z,18.99
2022-10-16T09:29:31.044Z,18.95
2022-10-16T09:30:31.038Z,19.04
2022-10-16T09:31:31.035Z,19.00
2022-10-16T09:32:31.030Z,18.99
2022-10-16T09:33:31.027Z,18.88
2022-10-16T09:34:31.024Z,18.90
2022-10-16T09:36:31.017Z,18.99
2022-10-16T09:37:31.017Z,19.00
2022-10-16T09:38:31.016Z,19.02
2022-10-16T09:39:31.010Z,18.96
2022-10-16T09:40:31.009Z,18.89
2022-10-16T09:41:31.004Z,18.93
2022-10-16T09:42:31.001Z,19.00
2022-10-16T09:43:30.999Z,18.77
2022-10-16T09:44:31.061Z,18.81
2022-10-16T09:45:30.993Z,18.90
2022-10-16T09:46:30.990Z,18.92
2022-10-16T09:47:30.988Z,18.93
2022-10-16T09:48:30.984Z,18.96
2022-10-16T09:49:30.982Z,18.96
2022-10-16T09:50:30.977Z,18.78
2022-10-16T09:51:30.978Z,18.95
2022-10-16T09:52:30.972Z,18.81
2022-10-16T09:53:30.970Z,18.78
2022-10-16T09:54:30.966Z,18.80
2022-10-16T09:55:30.966Z,18.93
2022-10-16T09:56:30.962Z,18.84
2022-10-16T09:57:31.081Z,18.84
2022-10-16T09:58:30.952Z,19.09
2022-10-16T09:59:30.952Z,18.92
2022-10-16T10:00:30.948Z,19.14
2022-10-16T10:01:30.951Z,19.15
2022-10-16T10:02:30.948Z,19.19
2022-10-16T10:03:30.943Z,19.26
2022-10-16T10:04:30.938Z,19.31
2022-10-16T10:05:30.935Z,19.34
2022-10-16T10:06:30.934Z,19.27
2022-10-16T10:07:30.930Z,19.40
2022-10-16T10:08:30.942Z,19.33
2022-10-16T10:09:30.929Z,19.26
2022-10-16T10:10:30.923Z,19.27
2022-10-16T10:11:30.924Z,19.29
2022-10-16T10:12:31.178Z,19.30
2022-10-16T10:13:30.916Z,19.22
2022-10-16T10:14:30.914Z,19.21
2022-10-16T10:15:30.908Z,19.18
2022-10-16T10:16:30.906Z,19.19
2022-10-16T10:17:30.902Z,19.14
2022-10-16T10:18:30.900Z,19.12
2022-10-16T10:19:32.985Z,19.08
2022-10-16T10:20:30.895Z,19.02
2022-10-16T10:21:30.891Z,19.04
2022-10-16T10:22:31.104Z,19.08
2022-10-16T10:23:30.892Z,19.09
2022-10-16T10:24:30.883Z,19.12
2022-10-16T10:25:30.882Z,19.08
2022-10-16T10:26:30.878Z,19.18
2022-10-16T10:27:30.877Z,19.14
2022-10-16T10:28:30.936Z,19.21
2022-10-16T10:29:30.867Z,19.27
2022-10-16T10:30:30.868Z,19.33
2022-10-16T10:31:30.865Z,19.18
2022-10-16T10:32:30.860Z,19.26
2022-10-16T10:33:30.858Z,19.19
2022-10-16T10:34:30.854Z,19.16
2022-10-16T10:35:30.854Z,19.22
2022-10-16T10:36:30.849Z,19.26
2022-10-16T10:37:30.847Z,19.34
2022-10-16T10:38:30.848Z,19.36
2022-10-16T10:39:30.844Z,19.33
2022-10-16T10:40:30.841Z,19.34
2022-10-16T10:41:31.684Z,19.40
2022-10-16T10:42:30.835Z,19.39
2022-10-16T10:43:30.832Z,19.33
2022-10-16T10:44:30.832Z,19.44
2022-10-16T10:45:30.827Z,19.56
2022-10-16T10:46:30.827Z,19.63
2022-10-16T10:47:30.823Z,19.84
2022-10-16T10:48:30.822Z,19.81
2022-10-16T10:49:30.818Z,19.82
2022-10-16T10:50:30.816Z,20.09
2022-10-16T10:51:30.813Z,20.09
2022-10-16T10:52:30.809Z,20.22
2022-10-16T10:53:30.808Z,20.22
2022-10-16T10:54:30.807Z,20.24
2022-10-16T10:55:30.804Z,20.29
2022-10-16T10:56:30.799Z,20.28
2022-10-16T10:57:30.821Z,20.24
2022-10-16T10:58:33.579Z,20.19
2022-10-16T10:59:30.798Z,20.26
2022-10-16T11:00:30.791Z,20.28
2022-10-16T11:01:37.994Z,20.19
2022-10-16T11:03:34.797Z,20.13
2022-10-16T11:04:34.786Z,20.07
2022-10-16T11:06:38.842Z,19.96
2022-10-16T11:07:38.810Z,20.02
2022-10-16T11:09:42.809Z,20.00
2022-10-16T11:10:42.798Z,20.04
2022-10-16T11:12:35.705Z,20.04
2022-10-16T11:13:35.695Z,20.07
2022-10-16T11:15:28.811Z,20.21
2022-10-16T11:16:28.801Z,20.13
2022-10-16T11:18:33.310Z,20.22
2022-10-16T11:19:33.306Z,20.14
2022-10-16T11:20:33.301Z,20.11
2022-10-16T11:21:33.300Z,20.00
2022-10-16T11:22:33.298Z,19.96
2022-10-16T11:23:33.294Z,19.94
2022-10-16T11:24:33.293Z,19.88
2022-10-16T11:25:33.425Z,19.86
2022-10-16T11:26:33.290Z,19.91
2022-10-16T11:27:33.285Z,19.84
2022-10-16T11:28:33.328Z,19.84
2022-10-16T11:29:33.282Z,19.69
2022-10-16T11:30:33.285Z,19.71
2022-10-16T11:31:33.276Z,19.74
2022-10-16T11:32:33.275Z,19.77
2022-10-16T11:33:33.274Z,19.74
2022-10-16T11:34:35.654Z,19.71
2022-10-16T11:35:33.268Z,19.74
2022-10-16T11:36:33.264Z,19.84
2022-10-16T11:37:33.263Z,19.84
2022-10-16T11:38:33.263Z,19.85
2022-10-16T11:39:33.260Z,19.82
2022-10-16T11:40:33.252Z,19.89
2022-10-16T11:41:33.257Z,19.88
2022-10-16T11:42:33.253Z,20.02
2022-10-16T11:43:33.256Z,20.09
2022-10-16T11:44:33.249Z,20.04
2022-10-16T11:45:33.243Z,20.06
2022-10-16T11:46:33.246Z,20.19
2022-10-16T11:47:57.496Z,20.16
2022-10-16T11:48:33.240Z,20.19
2022-10-16T11:49:33.237Z,20.19
2022-10-16T11:50:33.243Z,20.24
2022-10-16T11:51:33.233Z,20.22
2022-10-16T11:52:33.230Z,20.24
2022-10-16T11:53:33.229Z,20.25
2022-10-16T11:54:33.225Z,20.37
2022-10-16T11:55:33.224Z,20.31
2022-10-16T11:56:33.220Z,20.28
2022-10-16T11:57:33.219Z,20.28
2022-10-16T11:58:33.216Z,20.36
2022-10-16T11:59:33.215Z,20.34
2022-10-16T12:00:33.212Z,20.39
2022-10-16T12:01:33.209Z,20.31
2022-10-16T12:02:33.207Z,20.36
2022-10-16T12:03:33.242Z,20.32
2022-10-16T12:04:33.203Z,20.32
2022-10-16T12:05:33.202Z,20.32
2022-10-16T12:06:33.199Z,20.39
2022-10-16T12:07:33.196Z,20.40
2022-10-16T12:08:33.200Z,20.44
2022-10-16T12:09:33.195Z,20.52
2022-10-16T12:10:33.250Z,20.44
2022-10-16T12:11:33.189Z,20.55
2022-10-16T12:12:35.977Z,20.51
2022-10-16T12:13:33.184Z,20.48
2022-10-16T12:14:33.184Z,20.52
2022-10-16T12:15:59.766Z,20.37
2022-10-16T12:16:33.176Z,20.41
2022-10-16T12:17:33.176Z,20.40
2022-10-16T12:18:33.174Z,20.44
2022-10-16T12:19:33.170Z,20.37
2022-10-16T12:20:33.166Z,20.28
2022-10-16T12:21:33.166Z,20.36
2022-10-16T12:22:35.821Z,20.31
2022-10-16T12:23:33.161Z,20.36
2022-10-16T12:24:33.160Z,20.36
2022-10-16T12:25:33.160Z,20.43
2022-10-16T12:26:33.158Z,20.31
2022-10-16T12:27:33.159Z,20.37
2022-10-16T12:28:33.185Z,20.40
2022-10-16T12:29:33.149Z,20.39
2022-10-16T12:30:35.777Z,20.39
2022-10-16T12:31:33.146Z,20.31
2022-10-16T12:32:48.632Z,20.48
2022-10-16T12:33:33.140Z,20.44
2022-10-16T12:34:33.137Z,20.32
2022-10-16T12:35:33.135Z,20.36
2022-10-16T12:36:33.134Z,20.34
2022-10-16T12:37:33.131Z,20.29
2022-10-16T12:38:33.129Z,20.24
2022-10-16T12:39:33.126Z,20.24
2022-10-16T12:40:33.131Z,20.24
2022-10-16T12:41:33.125Z,20.34
2022-10-16T12:42:33.122Z,20.34
2022-10-16T12:43:33.120Z,20.25
2022-10-16T12:44:33.115Z,20.25
2022-10-16T12:45:33.140Z,20.19
2022-10-16T12:46:33.111Z,20.22
2022-10-16T12:47:33.111Z,20.21
2022-10-16T12:48:48.175Z,20.25
2022-10-16T12:49:33.107Z,20.14
2022-10-16T12:50:33.105Z,20.14
2022-10-16T12:51:33.102Z,20.22
2022-10-16T12:52:33.100Z,20.28
2022-10-16T12:53:33.100Z,20.24
2022-10-16T12:54:33.096Z,20.36
2022-10-16T12:55:33.094Z,20.32
2022-10-16T12:56:33.135Z,20.34
2022-10-16T12:57:35.563Z,20.34
2022-10-16T12:58:33.088Z,20.32
2022-10-16T12:59:33.085Z,20.31
2022-10-16T13:00:33.193Z,20.32
2022-10-16T13:01:33.079Z,20.31
2022-10-16T13:02:33.079Z,20.25
2022-10-16T13:03:33.074Z,20.19
2022-10-16T13:04:33.072Z,20.18
2022-10-16T13:05:33.131Z,20.16
2022-10-16T13:06:33.069Z,20.14
2022-10-16T13:07:33.066Z,20.06
2022-10-16T13:08:33.066Z,20.10
2022-10-16T13:09:33.063Z,20.14